sensor_id;sensor_type;location;lat;lon;timestamp;pressure;altitude;pressure_sealevel;temperature;humidity
23241;BME280;11789;53.482;9.862;2023-09-19T00:01:07;100394.84;;;15.78;100.00
23241;BME280;11789;53.482;9.862;2023-09-19T00:03:37;100400.03;;;15.78;100.00
23241;BME280;11789;53.482;9.862;2023-09-19T00:06:04;100391.44;;;15.76;100.00
23241;BME280;11789;53.482;9.862;2023-09-19T00:08:31;100404.47;;;15.76;100.00
23241;BME280;11789;53.482;9.862;2023-09-19T00:10:58;100400.97;;;15.76;100.00
23241;BME280;11789;53.482;9.862;2023-09-19T00:13:32;100403.56;;;15.77;100.00
23241;BME280;11789;53.482;9.862;2023-09-19T00:15:59;100410.53;;;15.77;100.00
23241;BME280;11789;53.482;9.862;2023-09-19T00:18:25;100406.09;;;15.79;100.00
23241;BME280;11789;53.482;9.862;2023-09-19T00:21:00;100403.44;;;15.80;100.00
23241;BME280;11789;53.482;9.862;2023-09-19T00:23:26;100411.28;;;15.80;100.00
23241;BME280;11789;53.482;9.862;2023-09-19T00:25:53;100405.19;;;15.81;100.00
23241;BME280;11789;53.482;9.862;2023-09-19T00:28:22;100407.78;;;15.81;100.00
23241;BME280;11789;53.482;9.862;2023-09-19T00:30:48;100411.28;;;15.80;100.00
23241;BME280;11789;53.482;9.862;2023-09-19T00:33:17;100402.66;;;15.78;100.00
23241;BME280;11789;53.482;9.862;2023-09-19T00:35:54;100405.31;;;15.77;100.00
23241;BME280;11789;53.482;9.862;2023-09-19T00:38:20;100409.69;;;15.76;100.00
23241;BME280;11789;53.482;9.862;2023-09-19T00:40:48;100408.78;;;15.76;100.00
23241;BME280;11789;53.482;9.862;2023-09-19T00:43:14;100401.03;;;15.74;100.00
23241;BME280;11789;53.482;9.862;2023-09-19T00:45:43;100406.19;;;15.76;100.00
23241;BME280;11789;53.482;9.862;2023-09-19T00:48:09;100407.06;;;15.76;100.00
23241;BME280;11789;53.482;9.862;2023-09-19T00:50:35;100404.47;;;15.76;100.00
23241;BME280;11789;53.482;9.862;2023-09-19T00:53:02;100409.56;;;15.79;100.00
23241;BME280;11789;53.482;9.862;2023-09-19T00:55:36;100413.00;;;15.81;100.00
23241;BME280;11789;53.482;9.862;2023-09-19T00:58:03;100424.31;;;15.80;100.00
23241;BME280;11789;53.482;9.862;2023-09-19T01:00:29;100415.63;;;15.80;100.00
23241;BME280;11789;53.482;9.862;2023-09-19T01:02:54;100420.91;;;15.78;100.00
23241;BME280;11789;53.482;9.862;2023-09-19T01:05:21;100416.53;;;15.79;100.00
23241;BME280;11789;53.482;9.862;2023-09-19T01:07:46;100428.78;;;15.75;100.00
23241;BME280;11789;53.482;9.862;2023-09-19T01:10:17;100425.25;;;15.78;100.00
23241;BME280;11789;53.482;9.862;2023-09-19T01:13:05;100433.13;;;15.76;100.00
23241;BME280;11789;53.482;9.862;2023-09-19T01:21:19;100437.31;;;15.82;100.00
23241;BME280;11789;53.482;9.862;2023-09-19T01:29:44;100443.31;;;15.84;100.00
23241;BME280;11789;53.482;9.862;2023-09-19T01:32:14;100438.09;;;15.84;100.00
23241;BME280;11789;53.482;9.862;2023-09-19T01:34:45;100441.63;;;15.83;100.00
23241;BME280;11789;53.482;9.862;2023-09-19T01:37:14;100444.16;;;15.85;100.00
23241;BME280;11789;53.482;9.862;2023-09-19T01:39:45;100432.97;;;15.81;100.00
23241;BME280;11789;53.482;9.862;2023-09-19T01:45:12;100449.56;;;15.78;100.00
23241;BME280;11789;53.482;9.862;2023-09-19T01:47:45;100446.97;;;15.78;100.00
23241;BME280;11789;53.482;9.862;2023-09-19T01:50:27;100455.59;;;15.80;100.00
23241;BME280;11789;53.482;9.862;2023-09-19T01:52:59;100461.69;;;15.79;100.00
23241;BME280;11789;53.482;9.862;2023-09-19T01:55:30;100469.62;;;15.76;100.00
23241;BME280;11789;53.482;9.862;2023-09-19T01:58:08;100465.28;;;15.75;100.00
23241;BME280;11789;53.482;9.862;2023-09-19T02:00:37;100468.91;;;15.71;100.00
23241;BME280;11789;53.482;9.862;2023-09-19T02:03:05;100468.13;;;15.68;100.00
23241;BME280;11789;53.482;9.862;2023-09-19T02:05:31;100468.25;;;15.62;100.00
23241;BME280;11789;53.482;9.862;2023-09-19T02:07:58;100470.09;;;15.58;100.00
23241;BME280;11789;53.482;9.862;2023-09-19T02:10:24;100464.03;;;15.57;100.00
23241;BME280;11789;53.482;9.862;2023-09-19T02:12:50;100474.47;;;15.56;100.00
23241;BME280;11789;53.482;9.862;2023-09-19T02:15:16;100482.41;;;15.53;100.00
23241;BME280;11789;53.482;9.862;2023-09-19T02:17:45;100485.84;;;15.53;100.00
23241;BME280;11789;53.482;9.862;2023-09-19T02:20:12;100489.38;;;15.51;100.00
23241;BME280;11789;53.482;9.862;2023-09-19T02:22:38;100482.56;;;15.47;100.00
23241;BME280;11789;53.482;9.862;2023-09-19T02:25:04;100484.34;;;15.45;100.00
23241;BME280;11789;53.482;9.862;2023-09-19T02:27:30;100493.91;;;15.44;100.00
23241;BME280;11789;53.482;9.862;2023-09-19T02:29:56;100487.84;;;15.44;100.00
23241;BME280;11789;53.482;9.862;2023-09-19T02:32:21;100489.66;;;15.42;100.00
23241;BME280;11789;53.482;9.862;2023-09-19T02:34:48;100485.31;;;15.41;100.00
23241;BME280;11789;53.482;9.862;2023-09-19T02:37:14;100483.59;;;15.40;100.00
23241;BME280;11789;53.482;9.862;2023-09-19T02:39:41;100492.28;;;15.40;100.00
23241;BME280;11789;53.482;9.862;2023-09-19T02:42:07;100497.47;;;15.40;100.00
23241;BME280;11789;53.482;9.862;2023-09-19T02:44:33;100493.19;;;15.39;100.00
23241;BME280;11789;53.482;9.862;2023-09-19T02:46:59;100495.78;;;15.39;100.00
23241;BME280;11789;53.482;9.862;2023-09-19T02:49:24;100499.22;;;15.40;100.00
23241;BME280;11789;53.482;9.862;2023-09-19T02:51:50;100495.78;;;15.39;100.00
23241;BME280;11789;53.482;9.862;2023-09-19T02:54:17;100502.69;;;15.40;100.00
23241;BME280;11789;53.482;9.862;2023-09-19T02:56:43;100497.47;;;15.40;100.00
23241;BME280;11789;53.482;9.862;2023-09-19T02:59:08;100495.72;;;15.42;100.00
23241;BME280;11789;53.482;9.862;2023-09-19T03:01:36;100494.81;;;15.43;100.00
23241;BME280;11789;53.482;9.862;2023-09-19T03:04:02;100502.63;;;15.43;100.00
23241;BME280;11789;53.482;9.862;2023-09-19T03:06:28;100505.28;;;15.42;100.00
23241;BME280;11789;53.482;9.862;2023-09-19T03:08:56;100505.34;;;15.39;100.00
23241;BME280;11789;53.482;9.862;2023-09-19T03:11:37;100511.41;;;15.39;100.00
23241;BME280;11789;53.482;9.862;2023-09-19T03:14:03;100514.97;;;15.37;100.00
23241;BME280;11789;53.482;9.862;2023-09-19T03:16:29;100511.47;;;15.38;100.00
23241;BME280;11789;53.482;9.862;2023-09-19T03:18:55;100515.81;;;15.37;100.00
23241;BME280;11789;53.482;9.862;2023-09-19T03:21:20;100527.09;;;15.38;100.00
23241;BME280;11789;53.482;9.862;2023-09-19T03:23:47;100525.34;;;15.38;100.00
23241;BME280;11789;53.482;9.862;2023-09-19T03:26:13;100512.38;;;15.35;100.00
23241;BME280;11789;53.482;9.862;2023-09-19T03:28:41;100521.09;;;15.34;100.00
23241;BME280;11789;53.482;9.862;2023-09-19T03:31:08;100517.69;;;15.32;100.00
23241;BME280;11789;53.482;9.862;2023-09-19T03:33:34;100520.31;;;15.30;100.00
23241;BME280;11789;53.482;9.862;2023-09-19T03:36:03;100522.97;;;15.29;100.00
23241;BME280;11789;53.482;9.862;2023-09-19T03:38:33;100533.50;;;15.24;100.00
23241;BME280;11789;53.482;9.862;2023-09-19T03:41:00;100542.22;;;15.23;100.00
23241;BME280;11789;53.482;9.862;2023-09-19T03:43:26;100536.22;;;15.20;100.00
23241;BME280;11789;53.482;9.862;2023-09-19T03:45:52;100544.12;;;15.15;100.00
23241;BME280;11789;53.482;9.862;2023-09-19T03:48:19;100549.44;;;15.12;100.00
23241;BME280;11789;53.482;9.862;2023-09-19T03:50:44;100552.19;;;15.06;100.00
23241;BME280;11789;53.482;9.862;2023-09-19T03:53:10;100554.06;;;15.01;100.00
23241;BME280;11789;53.482;9.862;2023-09-19T03:55:35;100556.72;;;14.98;100.00
23241;BME280;11789;53.482;9.862;2023-09-19T03:58:02;100552.47;;;14.94;100.00
23241;BME280;11789;53.482;9.862;2023-09-19T04:00:27;100573.44;;;14.88;100.00
23241;BME280;11789;53.482;9.862;2023-09-19T04:02:54;100573.66;;;14.78;100.00
23241;BME280;11789;53.482;9.862;2023-09-19T04:05:22;100573.84;;;14.71;100.00
23241;BME280;11789;53.482;9.862;2023-09-19T04:07:56;100580.00;;;14.67;100.00
23241;BME280;11789;53.482;9.862;2023-09-19T04:10:22;100579.19;;;14.63;100.00
23241;BME280;11789;53.482;9.862;2023-09-19T04:12:51;100582.75;;;14.59;100.00
23241;BME280;11789;53.482;9.862;2023-09-19T04:15:18;100579.44;;;14.52;100.00
23241;BME280;11789;53.482;9.862;2023-09-19T04:17:44;100585.56;;;14.50;100.00
23241;BME280;11789;53.482;9.862;2023-09-19T04:20:09;100583.03;;;14.44;100.00
23241;BME280;11789;53.482;9.862;2023-09-19T04:22:37;100591.78;;;14.41;100.00
23241;BME280;11789;53.482;9.862;2023-09-19T04:25:04;100594.50;;;14.35;100.00
23241;BME280;11789;53.482;9.862;2023-09-19T04:27:29;100607.50;;;14.35;100.00
23241;BME280;11789;53.482;9.862;2023-09-19T04:29:55;100599.75;;;14.32;100.00
23241;BME280;11789;53.482;9.862;2023-09-19T04:32:34;100603.34;;;14.26;100.00
23241;BME280;11789;53.482;9.862;2023-09-19T04:35:01;100611.19;;;14.23;100.00
23241;BME280;11789;53.482;9.862;2023-09-19T04:37:30;100617.28;;;14.22;100.00
23241;BME280;11789;53.482;9.862;2023-09-19T04:39:56;100611.25;;;14.22;100.00
23241;BME280;11789;53.482;9.862;2023-09-19T04:42:21;100613.94;;;14.17;100.00
23241;BME280;11789;53.482;9.862;2023-09-19T04:44:50;100620.88;;;14.17;100.00
23241;BME280;11789;53.482;9.862;2023-09-19T04:47:19;100622.66;;;14.15;100.00
23241;BME280;11789;53.482;9.862;2023-09-19T04:49:44;100615.75;;;14.12;100.00
23241;BME280;11789;53.482;9.862;2023-09-19T04:52:09;100614.94;;;14.10;100.00
23241;BME280;11789;53.482;9.862;2023-09-19T04:54:35;100623.63;;;14.09;100.00
23241;BME280;11789;53.482;9.862;2023-09-19T04:57:00;100615.75;;;14.12;100.00
23241;BME280;11789;53.482;9.862;2023-09-19T04:59:26;100622.75;;;14.09;100.00
23241;BME280;11789;53.482;9.862;2023-09-19T05:01:53;100619.28;;;14.08;100.00
23241;BME280;11789;53.482;9.862;2023-09-19T05:04:18;100621.16;;;14.01;100.00
23241;BME280;11789;53.482;9.862;2023-09-19T05:06:44;100617.75;;;13.98;100.00
23241;BME280;11789;53.482;9.862;2023-09-19T05:09:10;100624.75;;;13.96;100.00
23241;BME280;11789;53.482;9.862;2023-09-19T05:11:35;100624.75;;;13.96;100.00
23241;BME280;11789;53.482;9.862;2023-09-19T05:14:03;100626.41;;;14.00;100.00
23241;BME280;11789;53.482;9.862;2023-09-19T05:16:29;100635.88;;;14.02;100.00
23241;BME280;11789;53.482;9.862;2023-09-19T05:18:57;100643.66;;;14.04;100.00
23241;BME280;11789;53.482;9.862;2023-09-19T05:21:25;100638.50;;;14.01;100.00
23241;BME280;11789;53.482;9.862;2023-09-19T05:23:54;100635.94;;;13.98;100.00
23241;BME280;11789;53.482;9.862;2023-09-19T05:26:20;100646.41;;;13.95;100.00
23241;BME280;11789;53.482;9.862;2023-09-19T05:28:46;100651.63;;;13.93;100.00
23241;BME280;11789;53.482;9.862;2023-09-19T05:31:13;100654.25;;;13.92;100.00
23241;BME280;11789;53.482;9.862;2023-09-19T05:33:39;100650.81;;;13.91;100.00
23241;BME280;11789;53.482;9.862;2023-09-19T05:36:05;100653.41;;;13.91;100.00
23241;BME280;11789;53.482;9.862;2023-09-19T05:38:30;100646.50;;;13.90;100.00
23241;BME280;11789;53.482;9.862;2023-09-19T05:40:57;100638.69;;;13.90;100.00
23241;BME280;11789;53.482;9.862;2023-09-19T05:43:23;100644.78;;;13.89;100.00
23241;BME280;11789;53.482;9.862;2023-09-19T05:45:49;100646.47;;;13.92;100.00
23241;BME280;11789;53.482;9.862;2023-09-19T05:48:17;100651.53;;;13.99;100.00
23241;BME280;11789;53.482;9.862;2023-09-19T05:50:43;100663.47;;;14.10;100.00
23241;BME280;11789;53.482;9.862;2023-09-19T05:53:08;100670.28;;;14.17;100.00
23241;BME280;11789;53.482;9.862;2023-09-19T05:55:37;100664.06;;;14.24;100.00
23241;BME280;11789;53.482;9.862;2023-09-19T05:58:02;100682.03;;;14.36;100.00
23241;BME280;11789;53.482;9.862;2023-09-19T06:00:29;100664.56;;;14.43;100.00
23241;BME280;11789;53.482;9.862;2023-09-19T06:02:56;100670.63;;;14.43;100.00
23241;BME280;11789;53.482;9.862;2023-09-19T06:05:23;100665.31;;;14.49;100.00
23241;BME280;11789;53.482;9.862;2023-09-19T06:07:49;100669.56;;;14.55;100.00
23241;BME280;11789;53.482;9.862;2023-09-19T06:10:15;100661.66;;;14.60;100.00
23241;BME280;11789;53.482;9.862;2023-09-19T06:12:42;100677.94;;;14.69;100.00
23241;BME280;11789;53.482;9.862;2023-09-19T06:15:12;100669.12;;;14.76;100.00
23241;BME280;11789;53.482;9.862;2023-09-19T06:17:48;100675.97;;;14.81;100.00
23241;BME280;11789;53.482;9.862;2023-09-19T06:20:14;100663.78;;;14.83;100.00
23241;BME280;11789;53.482;9.862;2023-09-19T06:22:44;100686.44;;;14.77;100.00
23241;BME280;11789;53.482;9.862;2023-09-19T06:28:22;100687.47;;;14.70;100.00
23241;BME280;11789;53.482;9.862;2023-09-19T06:30:49;100681.37;;;14.70;100.00
23241;BME280;11789;53.482;9.862;2023-09-19T06:33:15;100685.72;;;14.69;100.00
23241;BME280;11789;53.482;9.862;2023-09-19T06:35:42;100690.94;;;14.69;100.00
23241;BME280;11789;53.482;9.862;2023-09-19T06:38:10;100683.97;;;14.70;100.00
23241;BME280;11789;53.482;9.862;2023-09-19T06:40:38;100679.62;;;14.72;100.00
23241;BME280;11789;53.482;9.862;2023-09-19T06:43:04;100683.06;;;14.72;100.00
23241;BME280;11789;53.482;9.862;2023-09-19T06:45:30;100681.34;;;14.73;100.00
23241;BME280;11789;53.482;9.862;2023-09-19T06:47:57;100685.53;;;14.80;100.00
23241;BME280;11789;53.482;9.862;2023-09-19T06:50:23;100677.69;;;14.82;100.00
23241;BME280;11789;53.482;9.862;2023-09-19T06:52:53;100692.38;;;14.84;100.00
23241;BME280;11789;53.482;9.862;2023-09-19T06:55:21;100689.81;;;14.83;100.00
23241;BME280;11789;53.482;9.862;2023-09-19T06:57:49;100697.53;;;14.87;100.00
23241;BME280;11789;53.482;9.862;2023-09-19T07:00:15;100694.97;;;14.86;100.00
23241;BME280;11789;53.482;9.862;2023-09-19T07:02:44;100697.53;;;14.87;100.00
23241;BME280;11789;53.482;9.862;2023-09-19T07:05:10;100694.91;;;14.87;100.00
23241;BME280;11789;53.482;9.862;2023-09-19T07:07:35;100694.87;;;14.89;100.00
23241;BME280;11789;53.482;9.862;2023-09-19T07:10:02;100707.00;;;14.91;100.00
23241;BME280;11789;53.482;9.862;2023-09-19T07:12:31;100707.00;;;14.91;100.00
23241;BME280;11789;53.482;9.862;2023-09-19T07:14:58;100710.44;;;14.92;100.00
23241;BME280;11789;53.482;9.862;2023-09-19T07:17:23;100715.56;;;14.96;100.00
23241;BME280;11789;53.482;9.862;2023-09-19T07:19:49;100721.63;;;14.97;100.00
23241;BME280;11789;53.482;9.862;2023-09-19T07:22:15;100732.84;;;14.99;100.00
23241;BME280;11789;53.482;9.862;2023-09-19T07:24:41;100730.28;;;14.97;100.00
23241;BME280;11789;53.482;9.862;2023-09-19T07:27:06;100738.03;;;14.99;100.00
23241;BME280;11789;53.482;9.862;2023-09-19T07:29:32;100736.28;;;15.01;100.00
23241;BME280;11789;53.482;9.862;2023-09-19T07:31:57;100733.69;;;15.01;100.00
23241;BME280;11789;53.482;9.862;2023-09-19T07:34:23;100731.03;;;15.02;100.00
23241;BME280;11789;53.482;9.862;2023-09-19T07:36:48;100730.94;;;15.07;100.00
23241;BME280;11789;53.482;9.862;2023-09-19T07:39:14;100740.47;;;15.08;100.00
23241;BME280;11789;53.482;9.862;2023-09-19T07:41:39;100748.28;;;15.08;100.00
23241;BME280;11789;53.482;9.862;2023-09-19T07:44:05;100750.88;;;15.08;100.00
23241;BME280;11789;53.482;9.862;2023-09-19T07:46:30;100750.91;;;15.07;100.00
23241;BME280;11789;53.482;9.862;2023-09-19T07:48:57;100751.81;;;15.04;100.00
23241;BME280;11789;53.482;9.862;2023-09-19T07:51:23;100755.37;;;15.01;100.00
23241;BME280;11789;53.482;9.862;2023-09-19T07:53:48;100746.75;;;14.98;100.00
23241;BME280;11789;53.482;9.862;2023-09-19T07:56:14;100752.84;;;14.97;100.00
23241;BME280;11789;53.482;9.862;2023-09-19T07:58:40;100756.34;;;14.94;100.00
23241;BME280;11789;53.482;9.862;2023-09-19T08:01:10;100754.59;;;14.95;100.00
23241;BME280;11789;53.482;9.862;2023-09-19T08:03:36;100745.94;;;14.94;100.00
23241;BME280;11789;53.482;9.862;2023-09-19T08:06:06;100746.78;;;14.96;100.00
23241;BME280;11789;53.482;9.862;2023-09-19T08:08:33;100753.66;;;14.99;100.00
23241;BME280;11789;53.482;9.862;2023-09-19T08:11:03;100761.44;;;15.02;100.00
23241;BME280;11789;53.482;9.862;2023-09-19T08:13:41;100762.19;;;15.07;100.00
23241;BME280;11789;53.482;9.862;2023-09-19T08:16:12;100761.25;;;15.10;100.00
23241;BME280;11789;53.482;9.862;2023-09-19T08:18:37;100764.72;;;15.10;100.00
23241;BME280;11789;53.482;9.862;2023-09-19T08:21:05;100769.88;;;15.13;100.00
23241;BME280;11789;53.482;9.862;2023-09-19T08:23:33;100768.91;;;15.17;100.00
23241;BME280;11789;53.482;9.862;2023-09-19T08:25:58;100761.00;;;15.20;100.00
23241;BME280;11789;53.482;9.862;2023-09-19T08:28:28;100762.75;;;15.21;100.00
23241;BME280;11789;53.482;9.862;2023-09-19T08:30:55;100755.75;;;15.23;100.00
23241;BME280;11789;53.482;9.862;2023-09-19T08:33:20;100769.59;;;15.25;100.00
23241;BME280;11789;53.482;9.862;2023-09-19T08:35:46;100761.78;;;15.25;100.00
23241;BME280;11789;53.482;9.862;2023-09-19T08:38:14;100761.75;;;15.27;100.00
23241;BME280;11789;53.482;9.862;2023-09-19T08:40:40;100765.22;;;15.27;100.00
23241;BME280;11789;53.482;9.862;2023-09-19T08:43:08;100762.53;;;15.32;100.00
23241;BME280;11789;53.482;9.862;2023-09-19T08:45:33;100758.16;;;15.32;100.00
23241;BME280;11789;53.482;9.862;2023-09-19T08:50:31;100757.97;;;15.40;100.00
23241;BME280;11789;53.482;9.862;2023-09-19T08:53:10;100764.03;;;15.42;100.00
23241;BME280;11789;53.482;9.862;2023-09-19T08:55:36;100758.69;;;15.48;100.00
23241;BME280;11789;53.482;9.862;2023-09-19T08:58:12;100759.47;;;15.52;100.00
23241;BME280;11789;53.482;9.862;2023-09-19T09:00:40;100755.06;;;15.54;100.00
23241;BME280;11789;53.482;9.862;2023-09-19T09:03:09;100764.59;;;15.55;100.00
23241;BME280;11789;53.482;9.862;2023-09-19T09:05:36;100757.62;;;15.55;100.00
23241;BME280;11789;53.482;9.862;2023-09-19T09:08:02;100766.34;;;15.54;100.00
23241;BME280;11789;53.482;9.862;2023-09-19T09:10:30;100768.09;;;15.54;100.00
23241;BME280;11789;53.482;9.862;2023-09-19T09:12:58;100774.06;;;15.59;100.00
23241;BME280;11789;53.482;9.862;2023-09-19T09:15:24;100768.75;;;15.65;100.00
23241;BME280;11789;53.482;9.862;2023-09-19T09:17:50;100781.72;;;15.68;100.00
23241;BME280;11789;53.482;9.862;2023-09-19T09:20:18;100774.62;;;15.73;100.00
23241;BME280;11789;53.482;9.862;2023-09-19T09:22:55;100772.78;;;15.78;100.00
23241;BME280;11789;53.482;9.862;2023-09-19T09:25:22;100772.72;;;15.81;98.94
23241;BME280;11789;53.482;9.862;2023-09-19T09:28:01;100772.56;;;15.88;100.00
23241;BME280;11789;53.482;9.862;2023-09-19T09:30:34;100769.81;;;15.94;100.00
23241;BME280;11789;53.482;9.862;2023-09-19T09:33:11;100772.19;;;16.03;97.76
23241;BME280;11789;53.482;9.862;2023-09-19T09:35:46;100774.66;;;16.09;97.82
23241;BME280;11789;53.482;9.862;2023-09-19T09:38:23;100774.47;;;16.15;96.94
23241;BME280;11789;53.482;9.862;2023-09-19T09:40:54;100771.81;;;16.17;94.07
23241;BME280;11789;53.482;9.862;2023-09-19T09:43:40;100767.41;;;16.20;93.96
23241;BME280;11789;53.482;9.862;2023-09-19T09:46:25;100782.87;;;16.26;93.76
23241;BME280;11789;53.482;9.862;2023-09-19T09:52:04;100777.66;;;16.26;90.66
23241;BME280;11789;53.482;9.862;2023-09-19T09:54:33;100780.22;;;16.29;92.37
23241;BME280;11789;53.482;9.862;2023-09-19T09:57:07;100780.09;;;16.34;93.59
23241;BME280;11789;53.482;9.862;2023-09-19T09:59:54;100773.06;;;16.38;92.10
23241;BME280;11789;53.482;9.862;2023-09-19T10:02:30;100778.12;;;16.42;92.07
23241;BME280;11789;53.482;9.862;2023-09-19T10:05:13;100785.84;;;16.47;92.34
23241;BME280;11789;53.482;9.862;2023-09-19T10:07:55;100784.78;;;16.54;91.55
23241;BME280;11789;53.482;9.862;2023-09-19T10:10:33;100783.81;;;16.58;88.18
23241;BME280;11789;53.482;9.862;2023-09-19T10:13:09;100769.69;;;16.65;89.03
23241;BME280;11789;53.482;9.862;2023-09-19T10:15:42;100787.91;;;16.68;91.39
23241;BME280;11789;53.482;9.862;2023-09-19T10:18:12;100787.91;;;16.68;92.25
23241;BME280;11789;53.482;9.862;2023-09-19T10:20:44;100787.03;;;16.68;89.04
23241;BME280;11789;53.482;9.862;2023-09-19T10:23:12;100785.31;;;16.67;88.88
23241;BME280;11789;53.482;9.862;2023-09-19T10:25:42;100788.03;;;16.62;87.75
23241;BME280;11789;53.482;9.862;2023-09-19T10:28:11;100794.09;;;16.64;86.42
23241;BME280;11789;53.482;9.862;2023-09-19T10:30:41;100788.88;;;16.64;87.92
23241;BME280;11789;53.482;9.862;2023-09-19T10:33:11;100785.25;;;16.70;89.15
23241;BME280;11789;53.482;9.862;2023-09-19T10:35:42;100798.28;;;16.70;89.67
23241;BME280;11789;53.482;9.862;2023-09-19T10:38:10;100784.38;;;16.69;87.94
23241;BME280;11789;53.482;9.862;2023-09-19T10:40:37;100780.94;;;16.67;88.49
23241;BME280;11789;53.482;9.862;2023-09-19T10:43:12;100794.91;;;16.66;87.01
23241;BME280;11789;53.482;9.862;2023-09-19T10:45:38;100783.56;;;16.67;86.63
23241;BME280;11789;53.482;9.862;2023-09-19T10:48:05;100785.19;;;16.73;87.94
23241;BME280;11789;53.482;9.862;2023-09-19T10:50:43;100786.84;;;16.75;87.89
23241;BME280;11789;53.482;9.862;2023-09-19T10:53:11;100787.75;;;16.74;88.11
23241;BME280;11789;53.482;9.862;2023-09-19T10:55:38;100791.28;;;16.72;87.73
23241;BME280;11789;53.482;9.862;2023-09-19T10:58:05;100785.25;;;16.70;88.63
23241;BME280;11789;53.482;9.862;2023-09-19T11:00:58;100773.16;;;16.66;88.88
23241;BME280;11789;53.482;9.862;2023-09-19T11:03:35;100786.31;;;16.63;86.11
23241;BME280;11789;53.482;9.862;2023-09-19T11:06:05;100801.94;;;16.64;87.11
23241;BME280;11789;53.482;9.862;2023-09-19T11:08:57;100812.16;;;16.73;86.46
23241;BME280;11789;53.482;9.862;2023-09-19T11:30:38;100785.19;;;16.73;81.10
23241;BME280;11789;53.482;9.862;2023-09-19T11:36:10;100789.53;;;16.72;84.13
23241;BME280;11789;53.482;9.862;2023-09-19T11:46:26;100791.94;;;16.80;84.50
23241;BME280;11789;53.482;9.862;2023-09-19T11:48:53;100791.91;;;16.81;85.62
23241;BME280;11789;53.482;9.862;2023-09-19T11:51:26;100789.22;;;16.84;85.94
23241;BME280;11789;53.482;9.862;2023-09-19T11:53:53;100774.34;;;16.86;85.85
23241;BME280;11789;53.482;9.862;2023-09-19T11:56:23;100778.66;;;16.89;85.80
23241;BME280;11789;53.482;9.862;2023-09-19T11:58:52;100782.91;;;16.92;85.60
23241;BME280;11789;53.482;9.862;2023-09-19T12:01:42;100773.28;;;16.94;84.40
23241;BME280;11789;53.482;9.862;2023-09-19T12:04:11;100768.87;;;16.96;83.64
23241;BME280;11789;53.482;9.862;2023-09-19T12:06:37;100771.56;;;16.93;83.57
23241;BME280;11789;53.482;9.862;2023-09-19T12:09:12;100775.06;;;16.92;83.33
23241;BME280;11789;53.482;9.862;2023-09-19T12:11:42;100768.09;;;16.92;84.61
23241;BME280;11789;53.482;9.862;2023-09-19T12:14:09;100775.78;;;16.98;85.33
23241;BME280;11789;53.482;9.862;2023-09-19T12:16:35;100771.28;;;17.03;85.62
23241;BME280;11789;53.482;9.862;2023-09-19T12:19:18;100774.56;;;17.10;85.08
23241;BME280;11789;53.482;9.862;2023-09-19T12:21:54;100766.66;;;17.11;84.98
23241;BME280;11789;53.482;9.862;2023-09-19T12:24:20;100768.47;;;17.09;83.77
23241;BME280;11789;53.482;9.862;2023-09-19T12:26:46;100769.28;;;17.11;81.26
23241;BME280;11789;53.482;9.862;2023-09-19T12:29:21;100775.47;;;17.09;80.91
23241;BME280;11789;53.482;9.862;2023-09-19T12:31:51;100770.13;;;17.12;82.00
23241;BME280;11789;53.482;9.862;2023-09-19T12:34:20;100767.50;;;17.14;80.20
23241;BME280;11789;53.482;9.862;2023-09-19T12:36:47;100766.47;;;17.19;82.17
23241;BME280;11789;53.482;9.862;2023-09-19T12:39:22;100760.41;;;17.17;81.62
23241;BME280;11789;53.482;9.862;2023-09-19T12:41:49;100763.00;;;17.17;82.25
23241;BME280;11789;53.482;9.862;2023-09-19T12:44:16;100766.53;;;17.16;83.21
23241;BME280;11789;53.482;9.862;2023-09-19T12:46:44;100764.78;;;17.17;81.51
23241;BME280;11789;53.482;9.862;2023-09-19T12:49:17;100769.16;;;17.16;79.33
23241;BME280;11789;53.482;9.862;2023-09-19T12:51:43;100761.22;;;17.19;80.49
23241;BME280;11789;53.482;9.862;2023-09-19T12:54:09;100762.81;;;17.25;80.66
23241;BME280;11789;53.482;9.862;2023-09-19T12:56:45;100769.66;;;17.29;80.96
23241;BME280;11789;53.482;9.862;2023-09-19T12:59:14;100753.00;;;17.31;80.71
23241;BME280;11789;53.482;9.862;2023-09-19T13:01:40;100761.63;;;17.35;81.07
23241;BME280;11789;53.482;9.862;2023-09-19T13:04:18;100762.53;;;17.34;81.49
23241;BME280;11789;53.482;9.862;2023-09-19T13:06:47;100751.19;;;17.33;78.61
23241;BME280;11789;53.482;9.862;2023-09-19T13:09:17;100753.78;;;17.35;74.42
23241;BME280;11789;53.482;9.862;2023-09-19T13:11:43;100751.12;;;17.36;76.39
23241;BME280;11789;53.482;9.862;2023-09-19T13:14:21;100751.03;;;17.40;78.34
23241;BME280;11789;53.482;9.862;2023-09-19T13:17:03;100742.34;;;17.39;76.21
23241;BME280;11789;53.482;9.862;2023-09-19T13:25:01;100730.91;;;17.42;78.78
23241;BME280;11789;53.482;9.862;2023-09-19T13:27:29;100733.44;;;17.45;79.77
23241;BME280;11789;53.482;9.862;2023-09-19T13:29:55;100722.88;;;17.48;77.18
23241;BME280;11789;53.482;9.862;2023-09-19T13:32:20;100726.22;;;17.53;76.98
23241;BME280;11789;53.482;9.862;2023-09-19T13:34:46;100723.50;;;17.56;76.46
23241;BME280;11789;53.482;9.862;2023-09-19T13:37:11;100725.91;;;17.62;77.66
23241;BME280;11789;53.482;9.862;2023-09-19T13:39:38;100717.16;;;17.63;77.49
23241;BME280;11789;53.482;9.862;2023-09-19T13:42:08;100719.75;;;17.64;75.35
23241;BME280;11789;53.482;9.862;2023-09-19T13:44:37;100717.16;;;17.63;74.19
23241;BME280;11789;53.482;9.862;2023-09-19T13:47:03;100698.94;;;17.61;75.74
23241;BME280;11789;53.482;9.862;2023-09-19T13:49:34;100703.38;;;17.58;78.16